Bathurst Island Cape Fourcroy, Australia
Current Conditions -  °F | °C
As of 5:30 PM on Sunday 21 Dec 2014 (Local Time) from YPDN Reporting Station
Broken Clouds Broken Clouds  
Wind Chill: 91°   Ceiling: 30000
Heat Index: 100°   Visibility: 6mi
Dew Point: 73°   Wind: 7mph
Humidity: 55%   Direction: 310°NW
Pressure: 29.65"   Gusts: NA
Location:  11.78°S, 130.02°E
Report Text: YPDN 210830Z 31006KT 9999 FEW028 BKN300 33/23 Q1004
Loading
Personal Weather Stations






























Interactive Weather Map New forecast layout! Learn more

10-Day Weather Forecast

Advertisements
Track Severe Weather on mobile